Time;durP1;ratioP1;P1;durP2;ratioP2;P2;SDS_P1;SDS_P2;PMS_P1;PMS_P2;Temp;Humidity;BMP_temperature;BMP_pressure;BME280_temperature;BME280_humidity;BME280_pressure;Samples;Min_cycle;Max_cycle;Signal;HPM_P1;HPM_P2
2022/05/26 00:02:06;;;;;;;1.50;0.90;;;17.00;68.70;;;;;;6171456;23;20482;-85
2022/05/26 00:04:33;;;;;;;2.43;1.40;;;17.00;69.00;;;;;;6165481;23;20421;-85
2022/05/26 00:07:00;;;;;;;3.30;1.43;;;16.90;68.80;;;;;;6164231;23;20439;-85
2022/05/26 00:09:27;;;;;;;1.87;1.20;;;16.90;68.80;;;;;;6158293;23;20412;-85
2022/05/26 00:11:55;;;;;;;1.50;1.00;;;16.90;69.00;;;;;;6158321;23;20513;-85
2022/05/26 00:14:22;;;;;;;2.13;1.13;;;16.90;68.70;;;;;;6159344;23;20403;-86
2022/05/26 00:16:52;;;;;;;2.53;1.00;;;17.00;69.10;;;;;;6160301;23;20411;-85
2022/05/26 00:19:21;;;;;;;2.10;1.63;;;16.90;69.50;;;;;;6157345;23;20480;-85
2022/05/26 00:21:49;;;;;;;2.33;1.50;;;16.90;69.50;;;;;;6160958;23;20415;-86
2022/05/26 00:24:17;;;;;;;1.47;1.10;;;16.90;69.20;;;;;;6169730;23;20403;-86
2022/05/26 00:26:44;;;;;;;2.27;1.37;;;16.90;69.80;;;;;;6169354;23;20442;-85
2022/05/26 00:29:10;;;;;;;2.70;1.10;;;16.90;69.40;;;;;;6171325;23;20413;-85
2022/05/26 00:31:37;;;;;;;2.30;1.40;;;16.90;69.40;;;;;;6178536;23;20577;-85
2022/05/26 00:34:04;;;;;;;2.53;1.23;;;16.90;70.30;;;;;;6173849;23;20434;-85
2022/05/26 00:36:38;;;;;;;2.43;1.13;;;16.80;70.10;;;;;;6173502;23;20397;-86
2022/05/26 00:39:07;;;;;;;5.23;1.40;;;16.90;69.90;;;;;;6175228;23;20422;-85
2022/05/26 00:41:33;;;;;;;2.70;1.20;;;16.80;70.00;;;;;;6163086;23;20411;-85
2022/05/26 00:44:00;;;;;;;1.50;1.20;;;16.80;70.30;;;;;;6160019;23;20403;-85
2022/05/26 00:46:34;;;;;;;5.93;2.20;;;16.80;70.40;;;;;;6162489;23;20473;-85
2022/05/26 00:49:03;;;;;;;1.57;1.20;;;16.70;70.50;;;;;;6181099;23;20391;-87
2022/05/26 00:51:37;;;;;;;2.67;1.40;;;16.70;70.70;;;;;;6182958;23;20419;-87
2022/05/26 00:54:08;;;;;;;1.70;1.40;;;16.70;70.80;;;;;;6183665;23;20450;-88
2022/05/26 00:56:41;;;;;;;1.63;1.03;;;16.70;71.10;;;;;;6183870;23;20394;-88
2022/05/26 00:59:15;;;;;;;2.47;1.30;;;16.70;71.10;;;;;;6183618;23;20384;-88
2022/05/26 01:01:42;;;;;;;3.23;1.23;;;16.60;71.50;;;;;;6160397;23;20479;-85
2022/05/26 01:04:12;;;;;;;3.33;1.47;;;16.50;71.90;;;;;;6161889;23;20413;-86
2022/05/26 01:06:46;;;;;;;1.53;1.27;;;16.40;72.50;;;;;;6161496;23;20431;-85
2022/05/26 01:09:13;;;;;;;2.43;1.50;;;16.50;72.60;;;;;;6171189;23;20418;-86
2022/05/26 01:11:42;;;;;;;2.67;1.60;;;16.50;72.70;;;;;;6178483;23;20431;-89
2022/05/26 01:14:13;;;;;;;2.83;1.30;;;16.40;72.80;;;;;;6171547;23;20392;-86
2022/05/26 01:16:46;;;;;;;2.40;1.20;;;16.40;73.30;;;;;;6158188;23;20389;-85
2022/05/26 01:19:36;;;;;;;2.57;2.00;;;16.30;73.60;;;;;;6162061;23;20387;-85
2022/05/26 01:22:17;;;;;;;3.20;1.93;;;16.30;74.10;;;;;;6162130;23;20401;-85
2022/05/26 01:25:10;;;;;;;2.10;1.20;;;16.30;73.90;;;;;;6158645;23;20705;-85
2022/05/26 01:27:38;;;;;;;1.67;1.40;;;16.30;74.10;;;;;;6156595;23;20913;-85
2022/05/26 01:30:24;;;;;;;2.13;1.20;;;16.20;73.80;;;;;;6156058;23;21048;-85
2022/05/26 01:33:22;;;;;;;3.47;1.23;;;16.10;74.60;;;;;;6157336;23;20411;-85
2022/05/26 01:36:00;;;;;;;3.90;1.30;;;16.10;75.20;;;;;;6155792;23;20392;-85
2022/05/26 01:38:35;;;;;;;2.47;1.27;;;16.10;75.80;;;;;;6156952;23;20766;-85
2022/05/26 01:41:12;;;;;;;3.30;1.13;;;16.10;75.70;;;;;;6156455;23;20437;-86
2022/05/26 01:43:48;;;;;;;1.73;1.30;;;16.10;75.80;;;;;;6156501;23;20478;-85
2022/05/26 01:46:21;;;;;;;2.23;1.23;;;16.10;75.50;;;;;;6155594;23;20422;-85
2022/05/26 01:48:54;;;;;;;1.73;1.33;;;16.00;75.90;;;;;;6162377;23;20392;-85
2022/05/26 01:51:28;;;;;;;2.20;0.93;;;15.90;76.40;;;;;;6161331;23;20431;-85
2022/05/26 01:54:03;;;;;;;2.03;1.20;;;16.00;76.40;;;;;;6157345;23;20441;-85
2022/05/26 01:56:38;;;;;;;2.10;1.00;;;16.00;76.10;;;;;;6165024;23;20387;-85
2022/05/26 01:59:09;;;;;;;1.30;1.00;;;15.90;76.10;;;;;;6168729;23;20709;-85
2022/05/26 02:01:41;;;;;;;2.80;1.30;;;15.90;76.20;;;;;;6157225;23;20430;-85
2022/05/26 02:04:14;;;;;;;2.80;1.03;;;15.90;76.10;;;;;;6156562;23;20528;-86
2022/05/26 02:06:46;;;;;;;2.63;1.20;;;15.90;76.50;;;;;;6157778;23;20450;-86
2022/05/26 02:09:16;;;;;;;1.60;0.90;;;15.90;76.30;;;;;;6157494;23;20437;-86
2022/05/26 02:11:47;;;;;;;1.90;1.00;;;15.90;76.50;;;;;;6157301;23;20415;-86
2022/05/26 02:14:18;;;;;;;1.60;1.07;;;15.90;76.20;;;;;;6157246;23;20379;-84
2022/05/26 02:16:49;;;;;;;3.40;0.90;;;15.90;76.20;;;;;;6160459;23;20712;-84
2022/05/26 02:19:20;;;;;;;1.50;1.17;;;15.90;76.00;;;;;;6163333;23;20757;-85
2022/05/26 02:21:55;;;;;;;3.33;1.10;;;15.80;75.80;;;;;;6164446;23;20391;-85
2022/05/26 02:24:26;;;;;;;4.00;1.03;;;15.80;75.80;;;;;;6169449;23;20391;-84
2022/05/26 02:26:53;;;;;;;3.00;1.10;;;15.80;75.90;;;;;;6169981;23;20445;-86
2022/05/26 02:32:07;;;;;;;2.77;0.90;;;15.70;75.80;;;;;;6164086;23;20378;-86
2022/05/26 02:34:35;;;;;;;2.97;1.07;;;15.70;75.90;;;;;;6164152;23;20410;-85
2022/05/26 02:37:04;;;;;;;2.70;0.90;;;15.70;76.30;;;;;;6164700;23;20401;-85
2022/05/26 02:39:30;;;;;;;1.10;0.80;;;15.60;76.50;;;;;;6158680;23;20410;-85
2022/05/26 02:41:58;;;;;;;2.47;0.93;;;15.60;77.00;;;;;;6159065;23;20410;-85
2022/05/26 02:44:27;;;;;;;4.13;1.17;;;15.50;77.60;;;;;;6158633;23;20432;-85
2022/05/26 02:47:15;;;;;;;1.97;1.00;;;15.40;78.50;;;;;;6156770;23;20963;-86
2022/05/26 02:50:00;;;;;;;1.47;1.00;;;15.30;78.90;;;;;;6156944;23;20437;-85
2022/05/26 02:52:31;;;;;;;6.87;1.90;;;15.30;79.00;;;;;;6160673;23;20395;-86
2022/05/26 02:55:13;;;;;;;3.73;1.43;;;15.30;78.90;;;;;;6177854;23;20387;-85
2022/05/26 02:57:50;;;;;;;3.27;1.37;;;15.30;78.70;;;;;;6166265;23;20441;-86
2022/05/26 03:00:20;;;;;;;1.70;1.07;;;15.30;78.90;;;;;;6172567;23;20442;-85
2022/05/26 03:02:55;;;;;;;2.27;1.50;;;15.30;78.60;;;;;;6175614;23;20479;-86
2022/05/26 03:05:28;;;;;;;4.40;1.77;;;15.30;79.30;;;;;;6179842;23;20387;-87
2022/05/26 03:07:59;;;;;;;4.43;2.23;;;15.40;80.10;;;;;;6179099;23;20497;-86
2022/05/26 03:10:28;;;;;;;6.83;2.23;;;15.30;80.30;;;;;;6181239;23;20429;-89
2022/05/26 03:12:56;;;;;;;3.60;2.33;;;15.20;81.20;;;;;;6176668;23;20399;-85
2022/05/26 03:15:24;;;;;;;5.00;2.80;;;15.20;82.40;;;;;;6164500;23;20470;-85
2022/05/26 03:17:50;;;;;;;5.17;3.33;;;15.10;82.80;;;;;;6161193;23;20411;-85
2022/05/26 03:20:17;;;;;;;4.80;2.67;;;15.20;83.90;;;;;;6160440;23;20445;-85
2022/05/26 03:22:46;;;;;;;8.80;3.20;;;15.20;84.20;;;;;;6161106;23;20407;-84
2022/05/26 03:25:13;;;;;;;5.50;3.10;;;15.10;84.20;;;;;;6160390;23;20410;-85
2022/05/26 03:27:40;;;;;;;7.60;3.20;;;15.00;84.40;;;;;;6165286;23;20434;-85
2022/05/26 03:30:08;;;;;;;4.00;2.40;;;15.00;84.70;;;;;;6161390;23;20438;-86
2022/05/26 03:32:34;;;;;;;4.13;2.40;;;14.90;85.40;;;;;;6165656;23;20424;-85
2022/05/26 03:40:50;;;;;;;4.37;2.87;;;14.80;86.90;;;;;;6158788;23;20758;-86
2022/05/26 03:43:17;;;;;;;3.43;2.07;;;14.80;87.00;;;;;;6158734;23;20386;-86
2022/05/26 03:45:44;;;;;;;3.20;2.40;;;14.70;87.80;;;;;;6159114;23;20399;-85
2022/05/26 03:48:11;;;;;;;4.70;3.30;;;14.80;87.80;;;;;;6159065;23;20445;-85
2022/05/26 03:50:38;;;;;;;3.47;2.80;;;14.80;88.00;;;;;;6158644;23;20433;-84
2022/05/26 03:53:06;;;;;;;3.27;2.40;;;14.80;88.20;;;;;;6158804;23;20411;-85
2022/05/26 03:55:33;;;;;;;3.43;2.20;;;14.80;88.70;;;;;;6159468;23;20411;-86
2022/05/26 03:58:01;;;;;;;3.60;2.10;;;14.70;88.50;;;;;;6156828;23;20399;-85
2022/05/26 04:00:28;;;;;;;4.47;2.60;;;14.70;89.00;;;;;;6156819;23;20438;-85
2022/05/26 04:02:55;;;;;;;2.83;2.40;;;14.60;89.70;;;;;;6157160;23;20407;-85
2022/05/26 04:05:22;;;;;;;4.13;3.17;;;14.70;90.10;;;;;;6161118;23;20418;-86
2022/05/26 04:07:49;;;;;;;5.90;2.90;;;14.70;90.20;;;;;;6166648;23;20442;-86
2022/05/26 04:10:17;;;;;;;4.00;2.47;;;14.60;90.30;;;;;;6160333;23;20436;-86
2022/05/26 04:12:44;;;;;;;4.90;2.73;;;14.70;90.70;;;;;;6156931;23;20514;-86
2022/05/26 04:15:12;;;;;;;4.50;2.33;;;14.70;90.70;;;;;;6156622;23;20409;-85
2022/05/26 04:17:39;;;;;;;5.50;2.20;;;14.60;91.00;;;;;;6156833;23;20900;-85
2022/05/26 04:20:07;;;;;;;8.30;2.80;;;14.70;91.10;;;;;;6159196;23;20423;-86
2022/05/26 04:22:34;;;;;;;4.23;2.77;;;14.70;91.70;;;;;;6160889;23;20898;-85
2022/05/26 04:25:01;;;;;;;5.20;2.90;;;14.70;91.30;;;;;;6157351;23;20402;-85
2022/05/26 04:27:31;;;;;;;2.40;1.70;;;14.70;91.30;;;;;;6160302;23;20439;-87
2022/05/26 04:29:58;;;;;;;3.93;2.53;;;14.70;91.40;;;;;;6156684;23;20754;-85
2022/05/26 04:32:25;;;;;;;2.50;2.00;;;14.70;91.50;;;;;;6157120;23;20414;-85
2022/05/26 04:34:53;;;;;;;2.93;2.00;;;14.70;91.30;;;;;;6156205;23;20415;-85
2022/05/26 04:37:21;;;;;;;2.90;1.90;;;14.80;91.20;;;;;;6155807;23;20739;-85
2022/05/26 04:39:48;;;;;;;2.37;1.53;;;14.90;91.10;;;;;;6156191;23;20945;-85
2022/05/26 04:42:15;;;;;;;2.40;1.20;;;15.00;90.50;;;;;;6155980;23;20410;-85
2022/05/26 04:44:44;;;;;;;2.13;1.57;;;15.20;88.40;;;;;;6160564;23;20410;-85
2022/05/26 04:47:12;;;;;;;1.70;1.30;;;15.40;86.30;;;;;;6169008;23;20544;-85
2022/05/26 04:49:39;;;;;;;1.37;1.00;;;15.50;85.20;;;;;;6158620;23;20419;-85
2022/05/26 04:52:06;;;;;;;1.93;1.33;;;15.60;85.20;;;;;;6175274;23;20486;-86
2022/05/26 04:54:33;;;;;;;6.77;1.27;;;15.70;84.60;;;;;;6165029;23;20461;-85
2022/05/26 04:57:00;;;;;;;2.30;1.20;;;15.80;84.20;;;;;;6155764;23;20414;-85
2022/05/26 04:59:27;;;;;;;1.90;1.17;;;15.80;83.80;;;;;;6156132;23;20421;-85
2022/05/26 05:01:55;;;;;;;2.80;0.97;;;15.90;82.90;;;;;;6155650;23;20395;-85
2022/05/26 05:04:23;;;;;;;1.50;0.90;;;16.00;82.60;;;;;;6158758;23;20426;-85
2022/05/26 05:06:50;;;;;;;1.97;0.90;;;16.00;82.70;;;;;;6156741;23;20402;-85
2022/05/26 05:09:16;;;;;;;3.43;1.50;;;16.10;82.50;;;;;;6157992;23;20407;-85
2022/05/26 05:11:43;;;;;;;2.70;1.10;;;16.10;82.10;;;;;;6156162;23;20414;-85
2022/05/26 05:14:10;;;;;;;1.40;1.00;;;16.10;82.10;;;;;;6155693;23;20403;-85
2022/05/26 05:16:42;;;;;;;1.97;0.70;;;16.10;82.10;;;;;;6156506;23;20410;-85
2022/05/26 05:19:10;;;;;;;2.37;1.27;;;16.10;82.00;;;;;;6155804;23;20921;-85
2022/05/26 05:21:41;;;;;;;4.13;1.27;;;16.20;81.70;;;;;;6156798;23;20427;-85
2022/05/26 05:24:14;;;;;;;1.30;0.80;;;16.60;80.50;;;;;;6155731;23;20421;-85
2022/05/26 05:26:43;;;;;;;2.37;1.00;;;17.20;79.30;;;;;;6157817;23;20927;-85
2022/05/26 05:29:15;;;;;;;2.43;1.07;;;17.80;77.00;;;;;;6157401;23;20537;-86
2022/05/26 05:31:45;;;;;;;5.17;1.20;;;18.50;74.70;;;;;;6156498;23;20428;-85
2022/05/26 05:34:16;;;;;;;2.50;1.07;;;19.10;71.90;;;;;;6156564;23;20401;-85
2022/05/26 05:36:44;;;;;;;2.27;0.90;;;19.80;69.40;;;;;;6158887;23;20374;-85
2022/05/26 05:39:11;;;;;;;2.27;0.67;;;20.20;65.80;;;;;;6174042;23;20405;-85
2022/05/26 05:41:38;;;;;;;1.70;1.20;;;20.10;64.80;;;;;;6176600;23;20485;-85
2022/05/26 05:44:06;;;;;;;4.00;0.97;;;20.30;65.40;;;;;;6171213;23;20395;-86
2022/05/26 05:46:53;;;;;;;1.83;0.90;;;20.50;63.70;;;;;;6180208;23;20402;-86
2022/05/26 05:49:22;;;;;;;2.57;1.37;;;20.50;63.40;;;;;;6171195;23;20426;-86
2022/05/26 05:51:49;;;;;;;2.60;0.93;;;20.40;63.80;;;;;;6161759;23;20410;-86
2022/05/26 05:54:16;;;;;;;2.23;0.97;;;20.50;63.30;;;;;;6161631;23;20416;-86
2022/05/26 05:56:42;;;;;;;1.73;0.90;;;20.70;62.90;;;;;;6162936;23;20409;-86
2022/05/26 05:59:09;;;;;;;3.60;1.20;;;20.90;62.50;;;;;;6161561;23;20453;-86
2022/05/26 06:01:36;;;;;;;2.50;0.90;;;21.30;62.10;;;;;;6160309;23;20435;-85
2022/05/26 06:04:03;;;;;;;5.13;1.30;;;21.70;60.80;;;;;;6160202;23;20792;-85
2022/05/26 06:06:36;;;;;;;1.87;0.87;;;21.80;59.90;;;;;;6168271;23;20482;-86
2022/05/26 06:09:03;;;;;;;3.00;1.10;;;21.40;60.60;;;;;;6160033;23;21220;-86
2022/05/26 06:11:31;;;;;;;2.20;0.87;;;21.10;60.50;;;;;;6163992;23;20429;-86
2022/05/26 06:13:58;;;;;;;5.03;1.23;;;20.20;62.10;;;;;;6162631;23;20408;-86
2022/05/26 06:16:30;;;;;;;3.60;1.30;;;19.60;64.50;;;;;;6160756;23;20393;-85
2022/05/26 06:18:57;;;;;;;2.50;0.87;;;19.40;66.90;;;;;;6161549;23;20400;-86
2022/05/26 06:21:24;;;;;;;3.80;1.10;;;19.10;67.00;;;;;;6160418;23;20506;-86
2022/05/26 06:23:56;;;;;;;1.90;1.13;;;18.90;68.40;;;;;;6160695;23;20887;-85
2022/05/26 06:26:23;;;;;;;2.40;1.10;;;18.90;68.50;;;;;;6161445;23;20419;-86
2022/05/26 06:31:35;;;;;;;2.90;1.00;;;19.10;68.40;;;;;;6160935;23;20415;-86
2022/05/26 06:39:35;;;;;;;2.47;1.10;;;19.10;68.10;;;;;;6162099;23;20373;-87
2022/05/26 06:42:07;;;;;;;2.73;1.13;;;19.20;68.60;;;;;;6154546;23;20535;-85
2022/05/26 06:44:38;;;;;;;2.70;1.00;;;19.20;68.50;;;;;;6159117;23;20663;-84
2022/05/26 06:47:07;;;;;;;2.50;0.97;;;18.90;68.70;;;;;;6159328;23;20414;-86
2022/05/26 06:49:33;;;;;;;2.90;0.97;;;18.90;69.70;;;;;;6159646;23;20934;-86
2022/05/26 06:52:00;;;;;;;1.50;0.90;;;18.80;70.00;;;;;;6164703;23;20424;-85
2022/05/26 06:54:32;;;;;;;4.77;1.60;;;18.60;69.90;;;;;;6163180;23;20406;-85
2022/05/26 06:56:59;;;;;;;1.50;0.90;;;18.60;70.30;;;;;;6171798;23;20392;-85
2022/05/26 06:59:26;;;;;;;2.63;0.97;;;18.70;70.60;;;;;;6162202;23;20407;-85
2022/05/26 07:01:53;;;;;;;7.40;1.30;;;18.90;70.50;;;;;;6165802;23;20492;-85
2022/05/26 07:04:20;;;;;;;3.10;1.00;;;19.10;69.40;;;;;;6164224;23;20898;-85
2022/05/26 07:06:49;;;;;;;10.40;1.27;;;19.40;68.90;;;;;;6163586;23;20403;-84
2022/05/26 07:09:16;;;;;;;3.60;1.40;;;19.70;68.20;;;;;;6163099;23;20458;-87
2022/05/26 07:11:44;;;;;;;1.60;0.90;;;19.90;68.80;;;;;;6166031;23;20429;-86
2022/05/26 07:14:11;;;;;;;1.60;1.20;;;20.30;67.70;;;;;;6169762;23;20413;-86
2022/05/26 07:16:38;;;;;;;2.70;1.10;;;20.40;65.90;;;;;;6180044;23;20408;-83
2022/05/26 07:19:05;;;;;;;1.83;0.97;;;20.70;65.50;;;;;;6175159;23;20400;-84
2022/05/26 07:21:31;;;;;;;3.77;1.20;;;21.00;64.00;;;;;;6160605;23;20769;-84
2022/05/26 07:23:58;;;;;;;2.97;1.13;;;21.40;63.60;;;;;;6159592;23;20406;-84
2022/05/26 07:26:25;;;;;;;2.37;0.97;;;21.90;61.60;;;;;;6160590;23;20414;-84
2022/05/26 07:28:53;;;;;;;1.63;0.80;;;22.10;60.20;;;;;;6158401;23;20462;-84
2022/05/26 07:31:20;;;;;;;2.70;0.80;;;22.30;59.60;;;;;;6158593;23;20479;-85
2022/05/26 07:33:47;;;;;;;2.27;0.67;;;22.40;59.20;;;;;;6158862;23;20413;-85
2022/05/26 07:41:41;;;;;;;2.30;0.90;;;21.60;59.30;;;;;;6157531;23;20458;-86
2022/05/26 07:44:09;;;;;;;2.13;0.97;;;21.70;59.90;;;;;;6158647;23;20410;-85
2022/05/26 07:46:36;;;;;;;3.40;1.40;;;21.90;60.00;;;;;;6158933;23;20780;-85
2022/05/26 07:49:05;;;;;;;5.30;1.17;;;21.80;59.00;;;;;;6158095;23;20444;-84
2022/05/26 07:51:32;;;;;;;2.60;0.93;;;22.00;58.70;;;;;;6158220;23;20459;-84
2022/05/26 07:54:00;;;;;;;1.43;0.70;;;22.00;58.70;;;;;;6159406;23;20411;-84
2022/05/26 07:56:31;;;;;;;2.73;0.90;;;21.60;58.60;;;;;;6158155;23;20452;-85
2022/05/26 07:58:57;;;;;;;3.10;1.30;;;21.70;58.90;;;;;;6158314;23;20392;-84
2022/05/26 08:01:25;;;;;;;1.50;0.80;;;22.00;58.90;;;;;;6167003;23;20429;-85
2022/05/26 08:03:53;;;;;;;2.73;0.93;;;22.40;58.00;;;;;;6165650;23;20419;-84
2022/05/26 08:06:21;;;;;;;3.03;1.10;;;22.90;57.10;;;;;;6160235;23;20421;-84
2022/05/26 08:08:48;;;;;;;1.80;0.80;;;23.20;56.50;;;;;;6158304;23;20440;-85
2022/05/26 08:11:15;;;;;;;2.03;0.80;;;23.30;56.20;;;;;;6158668;23;20430;-84
2022/05/26 08:13:42;;;;;;;1.77;0.97;;;23.40;56.20;;;;;;6158917;23;20741;-85
2022/05/26 08:16:08;;;;;;;2.23;0.97;;;23.40;55.80;;;;;;6159227;23;20410;-86
2022/05/26 08:18:36;;;;;;;2.37;1.20;;;23.70;55.80;;;;;;6158455;23;20413;-86
2022/05/26 08:21:07;;;;;;;1.77;1.20;;;24.00;55.20;;;;;;6158413;23;20423;-84
2022/05/26 08:23:34;;;;;;;2.50;0.80;;;24.20;55.30;;;;;;6161182;23;20407;-86
2022/05/26 08:26:00;;;;;;;2.40;1.07;;;24.10;54.80;;;;;;6159078;23;20411;-87
2022/05/26 08:28:27;;;;;;;3.47;1.30;;;23.60;55.00;;;;;;6160002;23;21060;-86
2022/05/26 08:30:54;;;;;;;3.30;1.20;;;23.00;56.40;;;;;;6169409;23;20433;-85
2022/05/26 08:33:21;;;;;;;3.10;0.90;;;22.70;57.00;;;;;;6180586;23;20393;-84
2022/05/26 08:35:49;;;;;;;3.00;2.40;;;22.40;57.50;;;;;;6174265;23;20469;-86
2022/05/26 08:38:16;;;;;;;3.00;1.10;;;22.20;58.70;;;;;;6159528;23;20859;-85
2022/05/26 08:40:50;;;;;;;1.60;0.90;;;22.10;58.50;;;;;;6157937;23;20433;-86
2022/05/26 08:43:19;;;;;;;1.90;0.83;;;22.00;58.50;;;;;;6158350;23;20410;-85
2022/05/26 08:45:49;;;;;;;1.90;0.90;;;22.00;58.40;;;;;;6161622;23;20415;-84
2022/05/26 08:48:32;;;;;;;2.17;1.10;;;22.10;58.60;;;;;;6159660;23;20499;-86
2022/05/26 08:51:00;;;;;;;1.80;0.90;;;22.00;58.60;;;;;;6157508;23;20427;-86
2022/05/26 08:53:33;;;;;;;4.70;2.27;;;21.90;58.80;;;;;;6156466;23;20427;-83
2022/05/26 08:56:01;;;;;;;2.67;1.10;;;21.80;59.50;;;;;;6156931;23;20389;-85
2022/05/26 08:58:33;;;;;;;3.03;1.33;;;21.80;59.70;;;;;;6156984;23;20405;-86
2022/05/26 09:01:03;;;;;;;3.00;1.30;;;21.70;59.70;;;;;;6160270;23;20434;-86
2022/05/26 09:03:31;;;;;;;2.63;1.20;;;21.90;59.50;;;;;;6159227;23;20408;-87
2022/05/26 09:06:03;;;;;;;1.50;1.00;;;22.10;59.10;;;;;;6174772;23;20391;-86
2022/05/26 09:14:04;;;;;;;2.50;1.10;;;23.40;57.10;;;;;;6156632;23;20911;-85
2022/05/26 09:16:33;;;;;;;2.40;1.00;;;23.60;56.20;;;;;;6155881;23;20420;-84
2022/05/26 09:19:11;;;;;;;2.53;1.20;;;24.00;56.80;;;;;;6155690;23;20405;-84
2022/05/26 09:21:40;;;;;;;2.47;0.90;;;24.00;55.50;;;;;;6155149;23;20461;-84
2022/05/26 09:24:24;;;;;;;2.23;1.23;;;23.20;55.90;;;;;;6156076;23;20406;-84
2022/05/26 09:26:55;;;;;;;1.70;0.63;;;23.30;55.60;;;;;;6156240;23;20453;-85
2022/05/26 09:29:25;;;;;;;1.93;0.80;;;22.90;56.60;;;;;;6155585;23;20436;-84
2022/05/26 09:31:52;;;;;;;1.60;1.00;;;22.50;57.80;;;;;;6156352;23;20433;-85
2022/05/26 09:34:21;;;;;;;2.57;1.07;;;22.50;58.10;;;;;;6156394;23;20409;-85
2022/05/26 09:36:52;;;;;;;3.20;1.37;;;22.60;57.80;;;;;;6161515;23;20411;-83
2022/05/26 09:39:23;;;;;;;3.50;1.83;;;22.50;58.50;;;;;;6162873;23;20390;-81
2022/05/26 09:41:53;;;;;;;1.70;0.93;;;22.50;58.80;;;;;;6122741;23;1015216;-84
2022/05/26 09:44:31;;;;;;;3.63;1.50;;;22.30;58.40;;;;;;6165784;23;20489;-85
2022/05/26 09:47:02;;;;;;;4.70;1.30;;;22.00;59.40;;;;;;6172808;23;20390;-83
2022/05/26 09:49:42;;;;;;;1.77;1.10;;;21.80;60.50;;;;;;6167383;23;20439;-83
2022/05/26 09:52:18;;;;;;;4.80;1.00;;;21.60;60.70;;;;;;6175947;23;20428;-83
2022/05/26 09:54:46;;;;;;;2.93;1.20;;;21.50;60.60;;;;;;6172819;23;20393;-83
2022/05/26 09:57:20;;;;;;;2.50;1.20;;;21.30;61.20;;;;;;6163943;23;20412;-83
2022/05/26 09:59:47;;;;;;;3.03;1.30;;;21.20;61.50;;;;;;6162302;23;20394;-83
2022/05/26 10:02:18;;;;;;;4.13;1.57;;;21.20;61.60;;;;;;6160966;23;20902;-83
2022/05/26 10:04:58;;;;;;;2.00;1.23;;;21.20;62.60;;;;;;6162403;23;20387;-83
2022/05/26 10:07:39;;;;;;;2.00;0.97;;;21.30;62.20;;;;;;6160125;23;20387;-83
2022/05/26 10:10:13;;;;;;;2.00;1.17;;;21.40;61.80;;;;;;6159086;23;20427;-83
2022/05/26 10:12:51;;;;;;;1.40;0.90;;;21.60;61.30;;;;;;6158685;23;20457;-81
2022/05/26 10:15:31;;;;;;;3.43;1.67;;;21.90;60.80;;;;;;6158502;23;20396;-81
2022/05/26 10:18:20;;;;;;;2.53;1.50;;;21.90;60.70;;;;;;6158791;23;20885;-82
2022/05/26 10:21:00;;;;;;;2.43;1.50;;;21.70;60.90;;;;;;6159048;23;20425;-82
2022/05/26 10:24:06;;;;;;;3.20;1.60;;;21.80;61.00;;;;;;6159248;23;20391;-85
2022/05/26 10:26:39;;;;;;;2.80;1.33;;;21.90;61.20;;;;;;6140659;23;20431;-82
2022/05/26 10:29:18;;;;;;;4.10;2.37;;;22.10;60.40;;;;;;6159598;23;20436;-82
2022/05/26 10:32:19;;;;;;;5.10;4.50;;;22.20;60.80;;;;;;6171253;23;20439;-83
2022/05/26 10:35:06;;;;;;;2.30;1.50;;;22.30;59.50;;;;;;6167928;23;20410;-81
2022/05/26 10:37:47;;;;;;;4.27;1.57;;;22.40;59.20;;;;;;6159808;23;20407;-82
2022/05/26 10:40:26;;;;;;;3.90;1.77;;;22.60;58.90;;;;;;6159693;23;20459;-82
2022/05/26 10:42:58;;;;;;;9.23;6.00;;;22.90;58.40;;;;;;6159811;23;20386;-82
2022/05/26 10:45:31;;;;;;;3.23;1.63;;;23.10;58.10;;;;;;6165604;23;20394;-82
2022/05/26 10:48:03;;;;;;;10.80;7.17;;;22.70;58.00;;;;;;6165269;23;20393;-82
2022/05/26 10:50:35;;;;;;;5.70;3.40;;;22.60;58.90;;;;;;6163436;23;20437;-81
2022/05/26 10:53:08;;;;;;;3.23;1.80;;;22.40;59.30;;;;;;6163123;23;20396;-82
2022/05/26 10:55:41;;;;;;;1.70;1.20;;;22.00;59.10;;;;;;6169827;23;20391;-84
2022/05/26 10:58:16;;;;;;;1.70;1.50;;;21.30;60.50;;;;;;6162904;23;20402;-83
2022/05/26 11:00:43;;;;;;;1.73;1.17;;;21.20;62.30;;;;;;6160954;23;20418;-83
2022/05/26 11:03:13;;;;;;;4.40;1.13;;;21.20;62.40;;;;;;6161215;23;20408;-81
2022/05/26 11:05:45;;;;;;;2.50;1.10;;;21.10;62.10;;;;;;6161639;23;20399;-81
2022/05/26 11:08:27;;;;;;;3.47;1.60;;;20.60;63.00;;;;;;6160455;23;20391;-82
2022/05/26 11:11:00;;;;;;;4.03;2.93;;;20.40;64.90;;;;;;6160048;23;20824;-82
2022/05/26 11:13:37;;;;;;;6.50;3.63;;;20.40;65.50;;;;;;6161658;23;20399;-83
2022/05/26 11:19:05;;;;;;;4.03;2.93;;;20.60;65.00;;;;;;6169088;23;20425;-82
2022/05/26 11:21:32;;;;;;;2.67;2.00;;;20.80;64.50;;;;;;6162761;23;20433;-83
2022/05/26 11:23:59;;;;;;;1.70;1.30;;;21.00;64.10;;;;;;6162501;23;20793;-83
2022/05/26 11:26:37;;;;;;;3.33;1.10;;;21.30;63.20;;;;;;6163811;23;20403;-83
2022/05/26 11:29:11;;;;;;;1.60;1.00;;;21.80;61.80;;;;;;6169909;23;20401;-80
2022/05/26 11:37:28;;;;;;;3.03;1.60;;;22.10;61.10;;;;;;6162553;23;20396;-81
2022/05/26 11:39:59;;;;;;;3.17;1.60;;;22.50;59.70;;;;;;6177507;23;20405;-82
2022/05/26 11:42:31;;;;;;;3.80;2.37;;;22.70;59.30;;;;;;6175850;23;20441;-83
2022/05/26 11:45:16;;;;;;;3.83;1.20;;;22.80;59.90;;;;;;6166543;23;20396;-82
2022/05/26 11:47:53;;;;;;;5.20;1.83;;;22.30;59.60;;;;;;6162875;23;20418;-84
2022/05/26 11:50:58;;;;;;;2.13;1.33;;;21.70;60.60;;;;;;6164027;23;20434;-84
2022/05/26 11:53:41;;;;;;;3.60;1.77;;;21.30;62.10;;;;;;6135796;23;20434;-83
2022/05/26 11:56:38;;;;;;;4.70;3.17;;;21.40;63.20;;;;;;6169920;23;20419;-81
2022/05/26 11:59:47;;;;;;;9.40;6.77;;;21.30;63.30;;;;;;6168327;23;20404;-82
2022/05/26 12:02:38;;;;;;;3.80;2.33;;;21.80;63.10;;;;;;6166314;23;20453;-79
2022/05/26 12:05:47;;;;;;;2.57;1.50;;;22.50;60.50;;;;;;6165211;23;20393;-83
2022/05/26 12:08:59;;;;;;;2.00;1.20;;;22.90;59.60;;;;;;6161835;23;20471;-83
2022/05/26 12:11:55;;;;;;;3.50;1.30;;;23.70;57.80;;;;;;6121378;23;20434;-83
2022/05/26 12:14:26;;;;;;;2.40;1.20;;;23.80;57.30;;;;;;6161984;23;20398;-82
2022/05/26 12:16:54;;;;;;;3.23;1.43;;;23.60;57.10;;;;;;6162118;23;20455;-82
2022/05/26 12:19:43;;;;;;;3.70;1.70;;;23.20;57.10;;;;;;6161871;23;20445;-82
2022/05/26 12:22:22;;;;;;;2.80;1.47;;;22.90;58.50;;;;;;6162092;23;20434;-80
2022/05/26 12:25:00;;;;;;;2.93;1.57;;;22.60;59.20;;;;;;6172229;23;20405;-80
2022/05/26 12:27:54;;;;;;;4.10;1.73;;;22.30;60.00;;;;;;6177451;23;20401;-79
2022/05/26 12:30:50;;;;;;;5.43;2.43;;;22.00;61.40;;;;;;6161782;23;20426;-82
2022/05/26 12:33:47;;;;;;;3.27;2.40;;;21.80;62.50;;;;;;6157793;23;20413;-81
2022/05/26 12:36:21;;;;;;;4.97;1.93;;;21.60;63.60;;;;;;6160998;23;20408;-81
2022/05/26 12:39:15;;;;;;;4.70;2.73;;;21.50;64.80;;;;;;6160052;23;20762;-82
2022/05/26 12:41:50;;;;;;;3.30;1.70;;;21.30;65.70;;;;;;6157348;23;20456;-79
2022/05/26 12:44:38;;;;;;;3.60;2.63;;;21.40;66.20;;;;;;6162899;23;20406;-80
2022/05/26 12:47:22;;;;;;;3.00;1.87;;;21.50;66.30;;;;;;6163192;23;20403;-79
2022/05/26 12:50:03;;;;;;;2.23;1.73;;;21.60;65.60;;;;;;6177062;23;20428;-79
2022/05/26 12:52:35;;;;;;;7.67;4.60;;;21.80;65.40;;;;;;6176562;23;20427;-80
2022/05/26 12:55:20;;;;;;;14.57;10.67;;;22.10;65.20;;;;;;6166111;23;20409;-79
2022/05/26 12:57:52;;;;;;;5.80;3.40;;;22.40;64.60;;;;;;6165480;23;20444;-79
2022/05/26 13:00:28;;;;;;;4.97;2.47;;;22.90;62.90;;;;;;6161978;23;20390;-80
2022/05/26 13:03:00;;;;;;;2.23;1.53;;;23.50;61.30;;;;;;6163571;23;20436;-80
2022/05/26 13:05:28;;;;;;;3.73;2.00;;;24.10;59.70;;;;;;6163079;23;20407;-80
2022/05/26 13:07:57;;;;;;;2.40;1.90;;;24.30;59.20;;;;;;6166284;23;20394;-81
2022/05/26 13:10:26;;;;;;;4.13;1.67;;;24.40;58.30;;;;;;6169714;23;20453;-80
2022/05/26 13:12:54;;;;;;;5.47;4.60;;;24.30;58.20;;;;;;6164506;23;20952;-79
2022/05/26 13:15:23;;;;;;;4.07;2.77;;;24.00;58.00;;;;;;6164876;23;20474;-80
2022/05/26 13:17:51;;;;;;;2.73;1.70;;;23.70;58.80;;;;;;6166335;23;20409;-80
2022/05/26 13:20:34;;;;;;;3.33;1.70;;;23.60;59.20;;;;;;6163318;23;20403;-79
2022/05/26 13:23:02;;;;;;;3.60;1.10;;;23.70;59.20;;;;;;6163028;23;20437;-79
2022/05/26 13:25:31;;;;;;;2.37;1.97;;;23.60;59.30;;;;;;6163580;23;20407;-81
2022/05/26 13:28:01;;;;;;;1.70;1.20;;;23.40;59.50;;;;;;6160978;23;20414;-80
2022/05/26 13:33:22;;;;;;;1.87;1.57;;;23.10;60.20;;;;;;6166751;23;20804;-80
2022/05/26 13:35:54;;;;;;;2.20;1.83;;;22.70;62.00;;;;;;6173771;23;20413;-79
2022/05/26 13:38:33;;;;;;;2.30;1.60;;;22.60;62.70;;;;;;6165424;23;20437;-79
2022/05/26 13:41:01;;;;;;;3.23;1.40;;;22.50;63.00;;;;;;6161894;23;20389;-79
2022/05/26 13:43:30;;;;;;;6.47;1.90;;;22.40;62.40;;;;;;6160776;23;20769;-81
2022/05/26 13:45:58;;;;;;;2.60;1.47;;;22.50;62.70;;;;;;6161073;23;20427;-81
2022/05/26 13:48:35;;;;;;;2.47;1.47;;;22.50;62.70;;;;;;6160630;23;20556;-82
2022/05/26 13:51:13;;;;;;;7.23;4.63;;;22.40;63.20;;;;;;6159624;23;20795;-79